sensor_id;sensor_type;location;lat;lon;timestamp;pressure;altitude;pressure_sealevel;temperature;humidity
20037;BME280;10179;42.640;23.312;2023-08-30T00:00:10;92848.97;;;24.73;56.32
20037;BME280;10179;42.640;23.312;2023-08-30T00:02:35;92828.69;;;24.63;56.48
20037;BME280;10179;42.640;23.312;2023-08-30T00:05:02;92843.84;;;24.80;56.34
20037;BME280;10179;42.640;23.312;2023-08-30T00:07:28;92850.09;;;24.84;56.84
20037;BME280;10179;42.640;23.312;2023-08-30T00:09:54;92838.34;;;24.76;56.39
20037;BME280;10179;42.640;23.312;2023-08-30T00:12:19;92690.31;;;23.75;56.37
20037;BME280;10179;42.640;23.312;2023-08-30T00:14:45;92855.94;;;24.86;55.50
20037;BME280;10179;42.640;23.312;2023-08-30T00:17:10;92849.44;;;24.87;54.75
20037;BME280;10179;42.640;23.312;2023-08-30T00:19:36;92780.28;;;24.39;53.90
20037;BME280;10179;42.640;23.312;2023-08-30T00:22:01;92855.47;;;24.84;53.52
20037;BME280;10179;42.640;23.312;2023-08-30T00:24:27;92851.88;;;24.80;52.02
20037;BME280;10179;42.640;23.312;2023-08-30T00:26:53;92852.31;;;24.70;50.40
20037;BME280;10179;42.640;23.312;2023-08-30T00:29:19;92772.50;;;24.13;50.19
20037;BME280;10179;42.640;23.312;2023-08-30T00:31:44;92849.25;;;24.59;50.19
20037;BME280;10179;42.640;23.312;2023-08-30T00:34:09;92830.34;;;24.43;49.65
20037;BME280;10179;42.640;23.312;2023-08-30T00:36:35;92819.59;;;24.43;49.44
20037;BME280;10179;42.640;23.312;2023-08-30T00:39:00;92678.22;;;23.48;49.23
20037;BME280;10179;42.640;23.312;2023-08-30T00:41:27;92634.88;;;23.13;49.35
20037;BME280;10179;42.640;23.312;2023-08-30T00:43:52;92849.56;;;24.45;49.28
20037;BME280;10179;42.640;23.312;2023-08-30T00:46:18;92643.75;;;23.04;48.93
20037;BME280;10179;42.640;23.312;2023-08-30T00:48:44;92836.63;;;24.26;48.99
20037;BME280;10179;42.640;23.312;2023-08-30T00:51:10;92868.06;;;24.38;49.04
20037;BME280;10179;42.640;23.312;2023-08-30T00:53:35;92841.13;;;24.14;49.27
20037;BME280;10179;42.640;23.312;2023-08-30T00:56:01;92870.31;;;24.36;49.30
20037;BME280;10179;42.640;23.312;2023-08-30T00:58:27;92863.03;;;24.37;49.82
20037;BME280;10179;42.640;23.312;2023-08-30T01:00:53;92864.47;;;24.34;49.75
20037;BME280;10179;42.640;23.312;2023-08-30T01:03:19;92858.66;;;24.32;49.77
20037;BME280;10179;42.640;23.312;2023-08-30T01:05:47;92857.09;;;24.31;49.38
20037;BME280;10179;42.640;23.312;2023-08-30T01:08:12;92793.84;;;23.88;49.14
20037;BME280;10179;42.640;23.312;2023-08-30T01:13:18;92862.41;;;24.40;48.34
20037;BME280;10179;42.640;23.312;2023-08-30T01:15:47;92859.06;;;24.43;48.18
20037;BME280;10179;42.640;23.312;2023-08-30T01:18:13;92856.50;;;24.46;47.69
20037;BME280;10179;42.640;23.312;2023-08-30T01:20:41;92851.81;;;24.43;47.46
20037;BME280;10179;42.640;23.312;2023-08-30T01:23:47;92876.47;;;24.58;47.23
20037;BME280;10179;42.640;23.312;2023-08-30T01:29:19;92750.28;;;23.49;47.85
20037;BME280;10179;42.640;23.312;2023-08-30T01:31:46;92874.84;;;24.23;48.45
20037;BME280;10179;42.640;23.312;2023-08-30T01:34:14;92858.09;;;24.05;48.85
20037;BME280;10179;42.640;23.312;2023-08-30T01:36:41;92862.75;;;23.96;48.91
20037;BME280;10179;42.640;23.312;2023-08-30T01:39:10;92880.44;;;23.97;49.07
20037;BME280;10179;42.640;23.312;2023-08-30T01:41:36;92865.81;;;23.86;49.17
20037;BME280;10179;42.640;23.312;2023-08-30T01:44:03;92874.50;;;24.04;49.16
20037;BME280;10179;42.640;23.312;2023-08-30T01:46:32;92863.06;;;23.95;48.99
20037;BME280;10179;42.640;23.312;2023-08-30T01:48:59;92870.41;;;24.07;49.04
20037;BME280;10179;42.640;23.312;2023-08-30T01:51:25;92852.88;;;23.88;49.22
20037;BME280;10179;42.640;23.312;2023-08-30T01:53:52;92825.22;;;23.67;48.59
20037;BME280;10179;42.640;23.312;2023-08-30T01:56:19;92875.75;;;24.07;49.04
20037;BME280;10179;42.640;23.312;2023-08-30T01:58:44;92862.88;;;24.00;49.39
20037;BME280;10179;42.640;23.312;2023-08-30T02:01:10;92793.44;;;23.56;49.26
20037;BME280;10179;42.640;23.312;2023-08-30T02:03:35;92875.09;;;24.10;49.32
20037;BME280;10179;42.640;23.312;2023-08-30T02:06:09;92868.44;;;24.16;49.49
20037;BME280;10179;42.640;23.312;2023-08-30T02:08:51;92874.06;;;24.23;49.61
20037;BME280;10179;42.640;23.312;2023-08-30T02:11:24;92852.72;;;24.05;49.67
20037;BME280;10179;42.640;23.312;2023-08-30T02:13:52;92857.88;;;24.11;49.93
20037;BME280;10179;42.640;23.312;2023-08-30T02:16:18;92852.59;;;24.02;50.01
20037;BME280;10179;42.640;23.312;2023-08-30T02:18:45;92822.84;;;23.74;50.15
20037;BME280;10179;42.640;23.312;2023-08-30T02:21:11;92867.84;;;24.10;50.28
20037;BME280;10179;42.640;23.312;2023-08-30T02:23:36;92845.81;;;24.04;50.24
20037;BME280;10179;42.640;23.312;2023-08-30T02:26:02;92851.31;;;24.08;50.10
20037;BME280;10179;42.640;23.312;2023-08-30T02:28:28;92847.13;;;23.98;50.59
20037;BME280;10179;42.640;23.312;2023-08-30T02:30:54;92861.91;;;24.04;50.46
20037;BME280;10179;42.640;23.312;2023-08-30T02:33:20;92857.31;;;24.05;50.33
20037;BME280;10179;42.640;23.312;2023-08-30T02:35:45;92841.81;;;23.90;49.95
20037;BME280;10179;42.640;23.312;2023-08-30T02:38:11;92803.66;;;23.63;50.27
20037;BME280;10179;42.640;23.312;2023-08-30T02:40:36;92870.78;;;23.96;50.09
20037;BME280;10179;42.640;23.312;2023-08-30T02:43:02;92832.91;;;23.77;50.29
20037;BME280;10179;42.640;23.312;2023-08-30T02:45:27;92875.50;;;23.99;50.14
20037;BME280;10179;42.640;23.312;2023-08-30T02:47:55;92853.06;;;23.83;49.94
20037;BME280;10179;42.640;23.312;2023-08-30T02:50:22;92803.31;;;23.65;49.72
20037;BME280;10179;42.640;23.312;2023-08-30T02:52:47;92837.03;;;23.95;50.07
20037;BME280;10179;42.640;23.312;2023-08-30T02:55:13;92848.69;;;23.99;49.91
20037;BME280;10179;42.640;23.312;2023-08-30T02:57:38;92847.91;;;23.99;49.93
20037;BME280;10179;42.640;23.312;2023-08-30T03:00:04;92750.41;;;23.32;49.93
20037;BME280;10179;42.640;23.312;2023-08-30T03:02:31;92769.91;;;23.41;49.96
20037;BME280;10179;42.640;23.312;2023-08-30T03:04:58;92841.41;;;23.79;49.89
20037;BME280;10179;42.640;23.312;2023-08-30T03:07:24;92831.41;;;23.67;49.99
20037;BME280;10179;42.640;23.312;2023-08-30T03:09:53;92799.19;;;23.46;50.08
20037;BME280;10179;42.640;23.312;2023-08-30T03:12:18;92789.97;;;23.35;49.95
20037;BME280;10179;42.640;23.312;2023-08-30T03:14:44;92850.78;;;23.73;50.04
20037;BME280;10179;42.640;23.312;2023-08-30T03:17:09;92860.56;;;23.69;49.31
20037;BME280;10179;42.640;23.312;2023-08-30T03:19:34;92795.88;;;23.20;49.17
20037;BME280;10179;42.640;23.312;2023-08-30T03:22:00;92852.03;;;23.67;49.24
20037;BME280;10179;42.640;23.312;2023-08-30T03:24:25;92836.44;;;23.39;49.01
20037;BME280;10179;42.640;23.312;2023-08-30T03:26:51;92817.84;;;23.34;48.45
20037;BME280;10179;42.640;23.312;2023-08-30T03:29:16;92852.34;;;23.65;47.50
20037;BME280;10179;42.640;23.312;2023-08-30T03:31:42;92848.88;;;23.65;47.10
20037;BME280;10179;42.640;23.312;2023-08-30T03:34:09;92842.91;;;23.68;47.01
20037;BME280;10179;42.640;23.312;2023-08-30T03:36:34;92839.13;;;23.69;46.56
20037;BME280;10179;42.640;23.312;2023-08-30T03:39:00;92794.59;;;23.47;46.94
20037;BME280;10179;42.640;23.312;2023-08-30T03:41:25;92833.22;;;23.75;46.69
20037;BME280;10179;42.640;23.312;2023-08-30T03:43:51;92830.69;;;23.79;47.32
20037;BME280;10179;42.640;23.312;2023-08-30T03:46:16;92837.16;;;23.78;47.27
20037;BME280;10179;42.640;23.312;2023-08-30T03:48:42;92833.38;;;23.79;47.39
20037;BME280;10179;42.640;23.312;2023-08-30T03:51:07;92780.34;;;23.34;47.42
20037;BME280;10179;42.640;23.312;2023-08-30T03:53:33;92847.09;;;23.77;47.77
20037;BME280;10179;42.640;23.312;2023-08-30T03:55:58;92845.22;;;23.78;47.71
20037;BME280;10179;42.640;23.312;2023-08-30T03:58:24;92836.91;;;23.71;47.30
20037;BME280;10179;42.640;23.312;2023-08-30T04:00:50;92851.69;;;23.77;47.38
20037;BME280;10179;42.640;23.312;2023-08-30T04:03:15;92838.53;;;23.54;47.34
20037;BME280;10179;42.640;23.312;2023-08-30T04:05:42;92870.63;;;23.72;47.52
20037;BME280;10179;42.640;23.312;2023-08-30T04:08:08;92781.75;;;23.10;47.37
20037;BME280;10179;42.640;23.312;2023-08-30T04:10:40;92837.13;;;23.57;47.60
20037;BME280;10179;42.640;23.312;2023-08-30T04:13:07;92859.00;;;23.68;47.92
20037;BME280;10179;42.640;23.312;2023-08-30T04:15:34;92841.78;;;23.69;48.01
20037;BME280;10179;42.640;23.312;2023-08-30T04:18:00;92864.25;;;23.85;47.89
20037;BME280;10179;42.640;23.312;2023-08-30T04:20:26;92874.59;;;23.95;47.77
20037;BME280;10179;42.640;23.312;2023-08-30T04:22:51;92878.91;;;24.09;47.79
20037;BME280;10179;42.640;23.312;2023-08-30T04:25:18;92844.09;;;24.00;47.27
20037;BME280;10179;42.640;23.312;2023-08-30T04:27:43;92844.22;;;24.03;46.88
20037;BME280;10179;42.640;23.312;2023-08-30T04:30:10;92891.97;;;24.52;46.74
20037;BME280;10179;42.640;23.312;2023-08-30T04:32:35;92898.63;;;24.67;46.13
20037;BME280;10179;42.640;23.312;2023-08-30T04:35:02;92914.13;;;24.82;45.66
20037;BME280;10179;42.640;23.312;2023-08-30T04:37:30;92906.56;;;24.96;45.42
20037;BME280;10179;42.640;23.312;2023-08-30T04:39:57;92908.81;;;25.07;44.87
20037;BME280;10179;42.640;23.312;2023-08-30T04:42:22;92904.66;;;25.09;44.52
20037;BME280;10179;42.640;23.312;2023-08-30T04:44:47;92919.19;;;25.29;44.64
20037;BME280;10179;42.640;23.312;2023-08-30T04:47:13;92903.47;;;25.19;44.38
20037;BME280;10179;42.640;23.312;2023-08-30T04:49:38;92911.00;;;25.13;43.32
20037;BME280;10179;42.640;23.312;2023-08-30T04:52:04;92893.19;;;24.88;43.62
20037;BME280;10179;42.640;23.312;2023-08-30T04:54:30;92864.34;;;24.51;43.50
20037;BME280;10179;42.640;23.312;2023-08-30T04:56:55;92928.47;;;24.86;43.25
20037;BME280;10179;42.640;23.312;2023-08-30T04:59:21;92932.81;;;24.79;43.08
20037;BME280;10179;42.640;23.312;2023-08-30T05:01:47;92926.84;;;24.73;43.35
20037;BME280;10179;42.640;23.312;2023-08-30T05:04:12;92922.59;;;24.72;43.49
20037;BME280;10179;42.640;23.312;2023-08-30T05:06:37;92867.63;;;24.36;42.90
20037;BME280;10179;42.640;23.312;2023-08-30T05:09:03;92912.78;;;24.76;41.56
20037;BME280;10179;42.640;23.312;2023-08-30T05:11:29;92914.56;;;24.84;41.45
20037;BME280;10179;42.640;23.312;2023-08-30T05:13:55;92918.97;;;24.89;41.54
20037;BME280;10179;42.640;23.312;2023-08-30T05:16:20;92910.56;;;24.90;41.53
20037;BME280;10179;42.640;23.312;2023-08-30T05:18:46;92907.53;;;24.92;41.59
20037;BME280;10179;42.640;23.312;2023-08-30T05:21:13;92884.91;;;24.81;41.73
20037;BME280;10179;42.640;23.312;2023-08-30T05:23:39;92909.13;;;25.05;41.69
20037;BME280;10179;42.640;23.312;2023-08-30T05:26:08;92838.53;;;24.59;41.47
20037;BME280;10179;42.640;23.312;2023-08-30T05:28:34;92925.88;;;25.23;41.17
20037;BME280;10179;42.640;23.312;2023-08-30T05:30:59;92929.03;;;25.25;41.04
20037;BME280;10179;42.640;23.312;2023-08-30T05:33:25;92938.22;;;25.36;40.76
20037;BME280;10179;42.640;23.312;2023-08-30T05:35:50;92940.03;;;25.32;40.98
20037;BME280;10179;42.640;23.312;2023-08-30T05:38:15;92835.66;;;24.64;40.95
20037;BME280;10179;42.640;23.312;2023-08-30T05:40:41;92897.59;;;25.05;41.49
20037;BME280;10179;42.640;23.312;2023-08-30T05:43:10;92929.25;;;25.32;41.93
20037;BME280;10179;42.640;23.312;2023-08-30T05:45:35;92922.78;;;25.45;41.24
20037;BME280;10179;42.640;23.312;2023-08-30T05:48:01;92835.34;;;25.03;41.21
20037;BME280;10179;42.640;23.312;2023-08-30T05:50:26;92934.03;;;25.84;40.49
20037;BME280;10179;42.640;23.312;2023-08-30T05:52:51;92889.94;;;25.77;39.96
20037;BME280;10179;42.640;23.312;2023-08-30T05:55:17;92924.22;;;26.16;39.58
20037;BME280;10179;42.640;23.312;2023-08-30T05:57:42;92926.97;;;26.32;39.30
20037;BME280;10179;42.640;23.312;2023-08-30T06:00:08;92932.81;;;26.47;38.72
20037;BME280;10179;42.640;23.312;2023-08-30T06:02:34;92877.63;;;26.28;38.95
20037;BME280;10179;42.640;23.312;2023-08-30T06:05:00;92929.78;;;26.76;38.43
20037;BME280;10179;42.640;23.312;2023-08-30T06:07:25;92931.63;;;26.88;38.03
20037;BME280;10179;42.640;23.312;2023-08-30T06:09:51;92936.97;;;27.00;37.65
20037;BME280;10179;42.640;23.312;2023-08-30T06:12:16;92932.75;;;27.15;37.96
20037;BME280;10179;42.640;23.312;2023-08-30T06:14:42;92896.72;;;27.07;37.26
20037;BME280;10179;42.640;23.312;2023-08-30T06:17:08;92868.78;;;27.00;37.06
20037;BME280;10179;42.640;23.312;2023-08-30T06:19:34;92927.28;;;27.59;37.25
20037;BME280;10179;42.640;23.312;2023-08-30T06:21:59;92905.78;;;27.63;36.80
20037;BME280;10179;42.640;23.312;2023-08-30T06:24:24;92937.38;;;27.94;36.38
20037;BME280;10179;42.640;23.312;2023-08-30T06:26:50;92932.94;;;28.01;35.27
20037;BME280;10179;42.640;23.312;2023-08-30T06:29:15;92936.66;;;28.13;35.28
20037;BME280;10179;42.640;23.312;2023-08-30T06:31:41;92908.44;;;28.10;35.41
20037;BME280;10179;42.640;23.312;2023-08-30T06:34:07;92942.47;;;28.50;35.47
20037;BME280;10179;42.640;23.312;2023-08-30T06:36:33;92829.53;;;28.01;34.57
20037;BME280;10179;42.640;23.312;2023-08-30T06:38:58;92943.75;;;28.95;34.63
20037;BME280;10179;42.640;23.312;2023-08-30T06:41:23;92934.00;;;29.10;34.24
20037;BME280;10179;42.640;23.312;2023-08-30T06:43:49;92762.03;;;28.20;34.10
20037;BME280;10179;42.640;23.312;2023-08-30T06:46:14;92926.59;;;29.49;33.47
20037;BME280;10179;42.640;23.312;2023-08-30T06:48:40;92920.78;;;29.70;33.24
20037;BME280;10179;42.640;23.312;2023-08-30T06:51:05;92924.38;;;30.04;32.94
20037;BME280;10179;42.640;23.312;2023-08-30T06:53:30;92936.50;;;30.37;32.46
20037;BME280;10179;42.640;23.312;2023-08-30T06:55:59;92938.56;;;30.47;32.02
20037;BME280;10179;42.640;23.312;2023-08-30T06:58:25;92927.72;;;30.47;32.14
20037;BME280;10179;42.640;23.312;2023-08-30T07:00:51;92917.09;;;30.35;31.72
20037;BME280;10179;42.640;23.312;2023-08-30T07:03:17;92941.47;;;30.61;31.64
20037;BME280;10179;42.640;23.312;2023-08-30T07:05:42;92874.38;;;30.25;31.72
20037;BME280;10179;42.640;23.312;2023-08-30T07:08:14;92943.09;;;30.70;31.14
20037;BME280;10179;42.640;23.312;2023-08-30T07:10:39;92919.34;;;30.59;31.11
20037;BME280;10179;42.640;23.312;2023-08-30T07:13:05;92934.97;;;30.70;31.01
20037;BME280;10179;42.640;23.312;2023-08-30T07:15:36;92899.38;;;30.41;30.88
20037;BME280;10179;42.640;23.312;2023-08-30T07:18:01;92931.78;;;30.64;31.00
20037;BME280;10179;42.640;23.312;2023-08-30T07:20:26;92935.69;;;30.66;30.93
20037;BME280;10179;42.640;23.312;2023-08-30T07:22:52;92937.09;;;30.83;30.36
20037;BME280;10179;42.640;23.312;2023-08-30T07:25:17;92930.63;;;30.95;29.85
20037;BME280;10179;42.640;23.312;2023-08-30T07:27:43;92911.59;;;30.92;29.08
20037;BME280;10179;42.640;23.312;2023-08-30T07:30:08;92941.63;;;31.09;29.80
20037;BME280;10179;42.640;23.312;2023-08-30T07:32:34;92941.91;;;30.97;30.08
20037;BME280;10179;42.640;23.312;2023-08-30T07:35:01;92948.88;;;30.98;30.07
20037;BME280;10179;42.640;23.312;2023-08-30T07:37:26;92948.00;;;30.87;29.91
20037;BME280;10179;42.640;23.312;2023-08-30T07:39:52;92950.28;;;30.85;30.26
20037;BME280;10179;42.640;23.312;2023-08-30T07:42:18;92934.59;;;31.01;29.99
20037;BME280;10179;42.640;23.312;2023-08-30T07:44:43;92861.97;;;30.87;29.83
20037;BME280;10179;42.640;23.312;2023-08-30T07:47:09;92936.34;;;31.57;29.93
20037;BME280;10179;42.640;23.312;2023-08-30T07:49:34;92935.84;;;31.89;28.66
20037;BME280;10179;42.640;23.312;2023-08-30T07:52:00;92944.50;;;32.05;28.20
20037;BME280;10179;42.640;23.312;2023-08-30T07:54:25;92922.81;;;32.13;27.67
20037;BME280;10179;42.640;23.312;2023-08-30T07:56:51;92937.66;;;32.26;27.85
20037;BME280;10179;42.640;23.312;2023-08-30T07:59:16;92940.72;;;32.21;27.75
20037;BME280;10179;42.640;23.312;2023-08-30T08:01:41;92938.84;;;32.32;26.45
20037;BME280;10179;42.640;23.312;2023-08-30T08:04:07;92940.47;;;32.40;27.02
20037;BME280;10179;42.640;23.312;2023-08-30T08:06:32;92931.63;;;32.50;26.73
20037;BME280;10179;42.640;23.312;2023-08-30T08:08:58;92937.41;;;32.45;27.25
20037;BME280;10179;42.640;23.312;2023-08-30T08:11:24;92943.53;;;32.35;28.05
20037;BME280;10179;42.640;23.312;2023-08-30T08:13:49;92944.41;;;32.50;27.25
20037;BME280;10179;42.640;23.312;2023-08-30T08:16:15;92870.69;;;31.96;26.51
20037;BME280;10179;42.640;23.312;2023-08-30T08:18:40;92597.84;;;29.69;27.01
20037;BME280;10179;42.640;23.312;2023-08-30T08:21:05;92922.22;;;31.41;28.13
20037;BME280;10179;42.640;23.312;2023-08-30T08:23:31;92946.31;;;31.46;28.06
20037;BME280;10179;42.640;23.312;2023-08-30T08:25:57;92888.47;;;31.01;28.94
20037;BME280;10179;42.640;23.312;2023-08-30T08:28:23;92952.13;;;31.48;28.34
20037;BME280;10179;42.640;23.312;2023-08-30T08:30:48;92947.25;;;31.27;28.23
20037;BME280;10179;42.640;23.312;2023-08-30T08:33:17;92955.63;;;31.11;28.93
20037;BME280;10179;42.640;23.312;2023-08-30T08:35:43;92957.53;;;31.07;28.71
20037;BME280;10179;42.640;23.312;2023-08-30T08:38:08;92957.38;;;30.93;29.17
20037;BME280;10179;42.640;23.312;2023-08-30T08:40:37;92944.38;;;30.76;29.18
20037;BME280;10179;42.640;23.312;2023-08-30T08:43:09;92934.44;;;30.60;28.90
20037;BME280;10179;42.640;23.312;2023-08-30T08:45:35;92787.19;;;29.59;29.59
20037;BME280;10179;42.640;23.312;2023-08-30T08:48:05;92887.53;;;30.23;29.63
20037;BME280;10179;42.640;23.312;2023-08-30T08:50:32;92954.91;;;30.54;30.26
20037;BME280;10179;42.640;23.312;2023-08-30T08:52:57;92949.13;;;30.56;30.62
20037;BME280;10179;42.640;23.312;2023-08-30T08:55:24;92949.25;;;30.66;30.56
20037;BME280;10179;42.640;23.312;2023-08-30T08:57:53;92950.19;;;30.78;30.53
20037;BME280;10179;42.640;23.312;2023-08-30T09:00:19;92933.16;;;30.77;30.20
20037;BME280;10179;42.640;23.312;2023-08-30T09:02:44;92943.94;;;31.04;30.22
20037;BME280;10179;42.640;23.312;2023-08-30T09:05:11;92858.53;;;30.60;29.91
20037;BME280;10179;42.640;23.312;2023-08-30T09:07:37;92942.06;;;31.11;29.67
20037;BME280;10179;42.640;23.312;2023-08-30T09:10:03;92936.25;;;30.76;30.20
20037;BME280;10179;42.640;23.312;2023-08-30T09:12:33;92946.78;;;30.54;30.71
20037;BME280;10179;42.640;23.312;2023-08-30T09:14:59;92849.53;;;29.66;31.16
20037;BME280;10179;42.640;23.312;2023-08-30T09:17:35;92869.06;;;29.79;31.53
20037;BME280;10179;42.640;23.312;2023-08-30T09:20:11;92931.31;;;30.28;31.69
20037;BME280;10179;42.640;23.312;2023-08-30T09:22:41;92916.19;;;30.24;31.71
20037;BME280;10179;42.640;23.312;2023-08-30T09:25:21;92908.97;;;30.35;31.41
20037;BME280;10179;42.640;23.312;2023-08-30T09:27:48;92938.31;;;30.59;31.22
20037;BME280;10179;42.640;23.312;2023-08-30T09:30:14;92936.13;;;30.69;30.90
20037;BME280;10179;42.640;23.312;2023-08-30T09:32:40;92898.22;;;30.42;30.79
20037;BME280;10179;42.640;23.312;2023-08-30T09:35:07;92937.69;;;30.70;30.93
20037;BME280;10179;42.640;23.312;2023-08-30T09:37:33;92936.13;;;30.69;30.86
20037;BME280;10179;42.640;23.312;2023-08-30T09:39:59;92930.63;;;30.61;30.74
20037;BME280;10179;42.640;23.312;2023-08-30T09:42:24;92847.53;;;30.16;30.03
20037;BME280;10179;42.640;23.312;2023-08-30T09:44:50;92940.59;;;30.84;29.88
20037;BME280;10179;42.640;23.312;2023-08-30T09:47:16;92914.63;;;30.83;29.84
20037;BME280;10179;42.640;23.312;2023-08-30T09:49:45;92898.34;;;30.83;29.71
20037;BME280;10179;42.640;23.312;2023-08-30T09:52:15;92909.34;;;30.97;29.72
20037;BME280;10179;42.640;23.312;2023-08-30T09:54:41;92876.00;;;30.93;29.33
20037;BME280;10179;42.640;23.312;2023-08-30T09:57:09;92917.44;;;31.31;29.31
20037;BME280;10179;42.640;23.312;2023-08-30T09:59:35;92919.09;;;31.39;29.33
20037;BME280;10179;42.640;23.312;2023-08-30T10:02:01;92920.66;;;31.40;29.38
20037;BME280;10179;42.640;23.312;2023-08-30T10:04:27;92915.16;;;31.33;29.67
20037;BME280;10179;42.640;23.312;2023-08-30T10:06:55;92911.97;;;31.27;29.54
20037;BME280;10179;42.640;23.312;2023-08-30T10:09:24;92910.38;;;31.23;29.72
20037;BME280;10179;42.640;23.312;2023-08-30T10:11:50;92865.06;;;30.86;29.71
20037;BME280;10179;42.640;23.312;2023-08-30T10:14:16;92909.94;;;31.13;30.42
20037;BME280;10179;42.640;23.312;2023-08-30T10:19:12;92845.59;;;30.77;29.45
20037;BME280;10179;42.640;23.312;2023-08-30T10:21:39;92904.16;;;31.19;29.50
20037;BME280;10179;42.640;23.312;2023-08-30T10:24:08;92878.38;;;31.02;29.77
20037;BME280;10179;42.640;23.312;2023-08-30T10:26:37;92899.09;;;31.17;29.88
20037;BME280;10179;42.640;23.312;2023-08-30T10:29:04;92900.28;;;31.20;29.92
20037;BME280;10179;42.640;23.312;2023-08-30T10:31:31;92904.16;;;31.19;29.73
20037;BME280;10179;42.640;23.312;2023-08-30T10:33:57;92904.88;;;31.16;29.15
20037;BME280;10179;42.640;23.312;2023-08-30T10:36:23;92899.78;;;31.07;29.26
20037;BME280;10179;42.640;23.312;2023-08-30T10:38:58;92884.88;;;30.90;29.01
20037;BME280;10179;42.640;23.312;2023-08-30T10:41:25;92895.72;;;30.90;29.40
20037;BME280;10179;42.640;23.312;2023-08-30T10:44:01;92895.00;;;30.97;29.46
20037;BME280;10179;42.640;23.312;2023-08-30T10:46:33;92890.34;;;30.94;29.54
20037;BME280;10179;42.640;23.312;2023-08-30T10:49:09;92842.97;;;30.54;29.59
20037;BME280;10179;42.640;23.312;2023-08-30T10:51:38;92885.19;;;30.85;29.48
20037;BME280;10179;42.640;23.312;2023-08-30T10:54:13;92883.00;;;30.98;29.18
20037;BME280;10179;42.640;23.312;2023-08-30T10:56:46;92725.09;;;30.03;29.39
20037;BME280;10179;42.640;23.312;2023-08-30T10:59:19;92890.22;;;31.24;29.20
20037;BME280;10179;42.640;23.312;2023-08-30T11:01:46;92892.69;;;31.32;29.07
20037;BME280;10179;42.640;23.312;2023-08-30T11:04:14;92883.41;;;31.37;28.75
20037;BME280;10179;42.640;23.312;2023-08-30T11:06:40;92875.69;;;31.39;27.91
20037;BME280;10179;42.640;23.312;2023-08-30T11:09:06;92877.22;;;31.40;27.90
20037;BME280;10179;42.640;23.312;2023-08-30T11:11:32;92875.69;;;31.39;28.38
20037;BME280;10179;42.640;23.312;2023-08-30T11:14:06;92821.75;;;30.93;27.79
20037;BME280;10179;42.640;23.312;2023-08-30T11:16:31;92878.63;;;31.27;27.92
20037;BME280;10179;42.640;23.312;2023-08-30T11:18:56;92879.41;;;31.27;28.37
20037;BME280;10179;42.640;23.312;2023-08-30T11:21:22;92878.88;;;31.52;28.15
20037;BME280;10179;42.640;23.312;2023-08-30T11:23:47;92700.50;;;30.56;27.62
20037;BME280;10179;42.640;23.312;2023-08-30T11:26:13;92827.03;;;31.71;27.23
20037;BME280;10179;42.640;23.312;2023-08-30T11:28:42;92850.59;;;32.12;27.11
20037;BME280;10179;42.640;23.312;2023-08-30T11:31:18;92847.78;;;32.74;25.88
20037;BME280;10179;42.640;23.312;2023-08-30T11:33:50;92850.22;;;33.00;24.94
20037;BME280;10179;42.640;23.312;2023-08-30T11:36:16;92840.13;;;33.22;24.77
20037;BME280;10179;42.640;23.312;2023-08-30T11:38:41;92836.22;;;33.45;24.51
20037;BME280;10179;42.640;23.312;2023-08-30T11:41:06;92837.81;;;33.28;24.68
20037;BME280;10179;42.640;23.312;2023-08-30T11:43:34;92833.91;;;33.11;24.35
20037;BME280;10179;42.640;23.312;2023-08-30T11:45:59;92828.47;;;33.29;23.73
20037;BME280;10179;42.640;23.312;2023-08-30T11:48:24;92826.09;;;33.28;23.78
20037;BME280;10179;42.640;23.312;2023-08-30T11:50:50;92774.75;;;32.94;25.74
20037;BME280;10179;42.640;23.312;2023-08-30T11:53:16;92827.69;;;33.18;26.14
20037;BME280;10179;42.640;23.312;2023-08-30T11:55:41;92821.81;;;33.05;26.31
20037;BME280;10179;42.640;23.312;2023-08-30T11:58:08;92813.19;;;32.82;25.93
20037;BME280;10179;42.640;23.312;2023-08-30T12:00:33;92827.88;;;32.52;24.40
20037;BME280;10179;42.640;23.312;2023-08-30T12:02:59;92838.94;;;32.15;24.28
20037;BME280;10179;42.640;23.312;2023-08-30T12:05:25;92793.31;;;31.79;24.08
20037;BME280;10179;42.640;23.312;2023-08-30T12:07:50;92814.00;;;31.88;24.70
20037;BME280;10179;42.640;23.312;2023-08-30T12:10:18;92813.53;;;31.85;24.09
20037;BME280;10179;42.640;23.312;2023-08-30T12:12:45;92813.50;;;31.78;24.75
20037;BME280;10179;42.640;23.312;2023-08-30T12:15:11;92761.25;;;31.37;24.52
20037;BME280;10179;42.640;23.312;2023-08-30T12:17:37;92817.72;;;31.72;24.35
20037;BME280;10179;42.640;23.312;2023-08-30T12:20:03;92814.25;;;31.72;25.03
20037;BME280;10179;42.640;23.312;2023-08-30T12:22:41;92783.50;;;31.57;26.38
20037;BME280;10179;42.640;23.312;2023-08-30T12:25:20;92648.81;;;30.76;27.10
20037;BME280;10179;42.640;23.312;2023-08-30T12:27:46;92813.19;;;31.87;26.95
20037;BME280;10179;42.640;23.312;2023-08-30T12:30:15;92820.22;;;31.95;27.11
20037;BME280;10179;42.640;23.312;2023-08-30T12:32:42;92809.38;;;31.95;26.68
20037;BME280;10179;42.640;23.312;2023-08-30T12:35:08;92796.56;;;31.96;26.80
20037;BME280;10179;42.640;23.312;2023-08-30T12:37:34;92797.78;;;32.05;26.29
20037;BME280;10179;42.640;23.312;2023-08-30T12:40:00;92799.72;;;32.01;25.82
20037;BME280;10179;42.640;23.312;2023-08-30T12:42:25;92807.06;;;32.04;25.50
20037;BME280;10179;42.640;23.312;2023-08-30T12:44:51;92786.16;;;32.08;25.11
20037;BME280;10179;42.640;23.312;2023-08-30T12:47:17;92744.50;;;31.87;25.45
20037;BME280;10179;42.640;23.312;2023-08-30T12:49:42;92781.91;;;32.22;24.77
20037;BME280;10179;42.640;23.312;2023-08-30T12:52:08;92769.91;;;32.23;24.86
20037;BME280;10179;42.640;23.312;2023-08-30T12:54:33;92779.19;;;32.18;24.75